createdAt,value
2022-08-30T00:00:42.439Z,21.73
2022-08-30T00:03:32.445Z,20.83
2022-08-30T00:06:24.781Z,20.83
2022-08-30T00:09:14.543Z,20.57
2022-08-30T00:12:04.505Z,20.43
2022-08-30T00:14:53.057Z,20.97
2022-08-30T00:17:41.990Z,21.07
2022-08-30T00:20:32.807Z,20.73
2022-08-30T00:23:23.462Z,20.97
2022-08-30T00:26:11.952Z,20.70
2022-08-30T00:29:00.404Z,20.67
2022-08-30T00:31:49.201Z,20.73
2022-08-30T00:34:37.532Z,21.50
2022-08-30T00:37:25.921Z,22.60
2022-08-30T00:40:17.547Z,22.63
2022-08-30T00:43:10.583Z,23.97
2022-08-30T00:46:04.789Z,23.80
2022-08-30T00:48:53.876Z,25.30
2022-08-30T00:51:43.239Z,25.27
2022-08-30T00:54:32.921Z,26.63
2022-08-30T00:57:22.740Z,27.30
2022-08-30T01:00:13.192Z,27.93
2022-08-30T01:03:01.910Z,28.73
2022-08-30T01:05:51.837Z,29.50
2022-08-30T01:08:40.349Z,30.03
2022-08-30T01:11:29.678Z,31.67
2022-08-30T01:14:21.511Z,32.73
2022-08-30T01:17:15.509Z,33.63
2022-08-30T01:20:09.446Z,34.97
2022-08-30T01:23:07.699Z,35.70
2022-08-30T01:25:57.283Z,36.17
2022-08-30T01:28:49.049Z,37.43
2022-08-30T01:31:37.792Z,36.47
2022-08-30T01:34:26.360Z,37.17
2022-08-30T01:37:15.552Z,37.13
2022-08-30T01:40:07.350Z,37.43
2022-08-30T01:42:56.304Z,38.07
2022-08-30T01:45:45.028Z,38.50
2022-08-30T01:48:34.325Z,37.73
2022-08-30T01:51:26.090Z,39.67
2022-08-30T01:54:14.774Z,39.03
2022-08-30T01:57:05.774Z,40.03
2022-08-30T01:59:54.184Z,39.70
2022-08-30T02:02:43.120Z,41.10
2022-08-30T02:05:31.831Z,39.53
2022-08-30T02:08:20.294Z,40.00
2022-08-30T02:11:10.490Z,39.73
2022-08-30T02:14:00.205Z,40.53
2022-08-30T02:16:48.717Z,41.90
2022-08-30T02:19:38.554Z,41.73
2022-08-30T02:22:26.990Z,44.10
2022-08-30T02:25:20.469Z,44.37
2022-08-30T02:28:09.795Z,46.20
2022-08-30T02:30:59.647Z,50.97
2022-08-30T02:33:48.722Z,51.67
2022-08-30T02:36:37.278Z,54.03
2022-08-30T02:39:25.991Z,55.27
2022-08-30T02:42:14.429Z,57.37
2022-08-30T02:45:02.951Z,57.37
2022-08-30T02:47:56.631Z,62.07
2022-08-30T02:50:46.972Z,64.97
2022-08-30T02:53:35.404Z,65.10
2022-08-30T02:56:25.248Z,65.00
2022-08-30T02:59:13.669Z,63.87
2022-08-30T03:02:03.276Z,64.37
2022-08-30T03:04:53.318Z,60.77
2022-08-30T03:07:41.854Z,60.07
2022-08-30T03:10:30.718Z,58.47
2022-08-30T03:13:19.107Z,59.43
2022-08-30T03:16:07.723Z,58.63
2022-08-30T03:18:56.571Z,59.23
2022-08-30T03:21:46.497Z,58.87
2022-08-30T03:24:35.457Z,59.53
2022-08-30T03:27:23.819Z,57.57
2022-08-30T03:30:13.214Z,56.07
2022-08-30T03:33:02.267Z,55.33
2022-08-30T03:35:52.013Z,57.73
2022-08-30T03:38:41.854Z,58.60
2022-08-30T03:41:32.455Z,59.77
2022-08-30T03:44:20.951Z,62.67
2022-08-30T03:47:10.086Z,63.37
2022-08-30T03:49:58.535Z,65.80
2022-08-30T03:52:46.921Z,67.40
2022-08-30T03:55:36.849Z,68.47
2022-08-30T03:58:25.686Z,68.70
2022-08-30T04:01:14.091Z,70.47
2022-08-30T04:04:02.951Z,72.03
2022-08-30T04:06:52.619Z,72.47
2022-08-30T04:09:41.959Z,71.00
2022-08-30T04:12:31.839Z,69.70
2022-08-30T04:15:21.146Z,68.67
2022-08-30T04:18:12.066Z,67.10
2022-08-30T04:21:00.769Z,66.07
2022-08-30T04:23:49.159Z,66.30
2022-08-30T04:26:37.503Z,67.30
2022-08-30T04:29:27.402Z,68.33
2022-08-30T04:32:17.956Z,68.53
2022-08-30T04:35:09.531Z,68.47
2022-08-30T04:37:58.022Z,67.90
2022-08-30T04:40:49.263Z,68.17
2022-08-30T04:43:37.624Z,65.83
2022-08-30T04:46:27.497Z,65.63
2022-08-30T04:49:18.269Z,63.77
2022-08-30T04:52:08.970Z,61.87
2022-08-30T04:54:57.928Z,60.43
2022-08-30T04:57:46.262Z,57.87
2022-08-30T05:00:35.010Z,55.40
2022-08-30T05:03:24.879Z,54.33
2022-08-30T05:06:13.774Z,52.87
2022-08-30T05:09:02.317Z,51.63
2022-08-30T05:11:52.906Z,49.80
2022-08-30T05:14:41.229Z,51.60
2022-08-30T05:17:29.626Z,51.23
2022-08-30T05:20:19.424Z,50.10
2022-08-30T05:23:08.056Z,50.40
2022-08-30T05:25:59.125Z,50.93
2022-08-30T05:28:47.923Z,51.30
2022-08-30T05:31:38.550Z,49.17
2022-08-30T05:34:27.187Z,49.77
2022-08-30T05:37:19.886Z,49.57
2022-08-30T05:40:11.139Z,48.70
2022-08-30T05:43:00.375Z,47.67
2022-08-30T05:45:48.670Z,46.43
2022-08-30T05:48:37.622Z,45.33
2022-08-30T05:51:28.867Z,44.57
2022-08-30T05:54:21.250Z,42.37
2022-08-30T05:57:09.724Z,41.33
2022-08-30T05:59:58.059Z,40.70
2022-08-30T06:02:47.703Z,39.50
2022-08-30T06:05:38.332Z,39.00
2022-08-30T06:08:27.379Z,37.23
2022-08-30T06:11:19.446Z,37.80
2022-08-30T06:14:08.298Z,36.57
2022-08-30T06:16:57.662Z,36.03
2022-08-30T06:19:46.066Z,36.17
2022-08-30T06:22:35.084Z,34.10
2022-08-30T06:25:23.536Z,33.90
2022-08-30T06:28:13.645Z,32.38
2022-08-30T06:31:02.063Z,31.73
2022-08-30T06:33:51.222Z,31.00
2022-08-30T06:36:40.323Z,29.80
2022-08-30T06:39:28.756Z,28.77
2022-08-30T06:42:19.666Z,28.95
2022-08-30T06:45:10.925Z,27.50
2022-08-30T06:48:00.405Z,26.65
2022-08-30T06:50:54.899Z,25.70
2022-08-30T06:53:43.288Z,24.38
2022-08-30T06:56:32.230Z,24.15
2022-08-30T06:59:20.785Z,23.65
2022-08-30T07:02:10.898Z,23.05
2022-08-30T07:04:59.338Z,22.08
2022-08-30T07:07:47.666Z,21.52
2022-08-30T07:10:39.368Z,19.92
2022-08-30T07:13:29.174Z,19.45
2022-08-30T07:16:17.595Z,18.80
2022-08-30T07:19:08.106Z,17.65
2022-08-30T07:22:09.535Z,17.88
2022-08-30T07:24:57.921Z,16.90
2022-08-30T07:27:46.722Z,16.33
2022-08-30T07:30:36.541Z,15.93
2022-08-30T07:33:24.983Z,15.43
2022-08-30T07:36:15.507Z,14.27
2022-08-30T07:39:04.110Z,14.48
2022-08-30T07:41:52.586Z,14.05
2022-08-30T07:44:41.015Z,13.20
2022-08-30T07:47:29.429Z,12.60
2022-08-30T07:50:17.961Z,13.05
2022-08-30T07:53:11.279Z,12.57
2022-08-30T07:55:59.855Z,12.80
2022-08-30T07:58:48.914Z,12.30
2022-08-30T08:01:37.394Z,13.43
2022-08-30T08:04:25.967Z,12.82
2022-08-30T08:07:14.317Z,12.63
2022-08-30T08:10:05.225Z,11.70
2022-08-30T08:12:53.560Z,11.43
2022-08-30T08:15:43.483Z,11.63
2022-08-30T08:18:32.872Z,11.30
2022-08-30T08:21:23.577Z,9.43
2022-08-30T08:24:12.588Z,9.30
2022-08-30T08:27:04.404Z,9.93
2022-08-30T08:29:56.872Z,9.43
2022-08-30T08:32:46.950Z,8.60
2022-08-30T08:35:37.398Z,8.70
2022-08-30T08:38:28.791Z,9.20
2022-08-30T08:41:41.064Z,9.27
2022-08-30T08:44:54.421Z,8.98
2022-08-30T08:48:01.440Z,8.52
2022-08-30T08:51:19.331Z,8.52
2022-08-30T08:54:16.537Z,9.85
2022-08-30T08:57:13.871Z,8.73
2022-08-30T09:00:16.511Z,8.65
2022-08-30T09:03:09.392Z,9.13
2022-08-30T09:05:59.317Z,8.38
2022-08-30T09:08:47.592Z,8.13
2022-08-30T09:11:38.292Z,8.43
2022-08-30T09:14:30.977Z,8.75
2022-08-30T09:17:22.098Z,9.15
2022-08-30T09:20:10.488Z,8.13
2022-08-30T09:23:00.273Z,7.95
2022-08-30T09:25:52.737Z,7.93
2022-08-30T09:28:49.319Z,8.10
2022-08-30T09:31:49.023Z,7.40
2022-08-30T09:34:38.806Z,7.85
2022-08-30T09:37:31.972Z,7.85
2022-08-30T09:40:27.280Z,7.95
2022-08-30T09:43:22.792Z,8.57
2022-08-30T09:46:16.227Z,8.02
2022-08-30T09:49:07.441Z,8.43
2022-08-30T09:52:10.415Z,7.80
2022-08-30T09:55:14.404Z,8.73
2022-08-30T09:58:10.776Z,7.18
2022-08-30T10:01:10.501Z,7.55
2022-08-30T10:04:07.225Z,8.50
2022-08-30T10:07:02.143Z,8.10
2022-08-30T10:09:58.266Z,6.30
2022-08-30T10:13:02.545Z,6.65
2022-08-30T10:15:56.485Z,6.10
2022-08-30T10:18:53.103Z,5.90
2022-08-30T10:21:47.752Z,5.55
2022-08-30T10:24:44.110Z,5.95
2022-08-30T10:27:39.740Z,7.00
2022-08-30T10:30:31.794Z,7.57
2022-08-30T10:33:31.946Z,7.28
2022-08-30T10:36:24.871Z,7.50
2022-08-30T10:39:20.041Z,8.93
2022-08-30T10:42:14.230Z,8.57
2022-08-30T10:45:07.007Z,7.03
2022-08-30T10:48:03.990Z,6.65
2022-08-30T10:50:57.539Z,6.40
2022-08-30T10:53:49.531Z,5.80
2022-08-30T10:56:43.056Z,5.30
2022-08-30T10:59:34.810Z,5.90
2022-08-30T11:02:58.784Z,6.22
2022-08-30T11:06:01.377Z,6.03
2022-08-30T11:09:19.285Z,5.00
2022-08-30T11:12:33.203Z,4.97
2022-08-30T11:15:32.298Z,5.10
2022-08-30T11:18:21.284Z,5.10
2022-08-30T11:21:24.456Z,5.20
2022-08-30T11:24:16.581Z,5.25
2022-08-30T11:27:05.376Z,5.15
2022-08-30T11:29:53.924Z,5.57
2022-08-30T11:33:07.896Z,5.03
2022-08-30T11:35:58.182Z,5.75
2022-08-30T11:39:06.121Z,5.00
2022-08-30T11:42:14.051Z,4.93
2022-08-30T11:45:39.856Z,4.88
2022-08-30T11:48:53.453Z,5.38
2022-08-30T11:52:26.723Z,4.43
2022-08-30T11:55:32.535Z,5.00
2022-08-30T11:58:30.454Z,4.25
2022-08-30T12:01:50.664Z,4.30
2022-08-30T12:04:47.953Z,4.50
2022-08-30T12:07:57.910Z,4.78
2022-08-30T12:10:48.703Z,4.40
2022-08-30T12:13:53.944Z,4.28
2022-08-30T12:17:00.540Z,4.70
2022-08-30T12:19:51.430Z,3.88
2022-08-30T12:22:40.701Z,4.10
2022-08-30T12:25:32.400Z,3.72
2022-08-30T12:28:26.157Z,3.88
2022-08-30T12:31:18.143Z,3.90
2022-08-30T12:34:07.558Z,4.43
2022-08-30T12:37:04.372Z,4.40
2022-08-30T12:40:03.999Z,4.70
2022-08-30T12:42:57.565Z,4.20
2022-08-30T12:45:50.829Z,4.38
2022-08-30T12:48:41.888Z,4.65
2022-08-30T12:51:37.245Z,4.45
2022-08-30T12:54:31.970Z,4.45
2022-08-30T12:57:36.659Z,4.10
2022-08-30T13:00:27.875Z,3.72
2022-08-30T13:03:31.238Z,4.07
2022-08-30T13:06:38.365Z,4.60
2022-08-30T13:09:32.518Z,4.05
2022-08-30T13:12:23.795Z,4.15
2022-08-30T13:15:17.979Z,4.10
2022-08-30T13:18:27.833Z,4.43
2022-08-30T13:21:25.611Z,4.13
2022-08-30T13:24:15.217Z,3.58
2022-08-30T13:27:09.891Z,4.60
2022-08-30T13:29:58.795Z,4.20
2022-08-30T13:32:47.237Z,4.75
2022-08-30T13:35:35.691Z,3.80
2022-08-30T13:38:24.573Z,4.00
2022-08-30T13:41:12.958Z,4.50
2022-08-30T13:44:13.132Z,3.90
2022-08-30T13:50:11.751Z,5.25
2022-08-30T13:53:00.100Z,4.20
2022-08-30T13:55:48.673Z,4.40
2022-08-30T13:58:37.027Z,4.20
2022-08-30T14:01:27.163Z,4.35
2022-08-30T14:04:16.395Z,4.20
2022-08-30T14:07:14.029Z,4.57
2022-08-30T14:13:17.889Z,4.22
2022-08-30T14:19:19.056Z,4.57
2022-08-30T14:22:07.593Z,4.88
2022-08-30T14:24:56.775Z,5.00
2022-08-30T14:27:45.144Z,5.57
2022-08-30T14:30:33.727Z,4.50
2022-08-30T14:33:22.591Z,4.22
2022-08-30T14:36:16.018Z,5.03
2022-08-30T14:39:08.319Z,5.82
2022-08-30T14:41:57.835Z,6.15
2022-08-30T14:44:56.874Z,5.13
2022-08-30T14:47:45.680Z,5.55
2022-08-30T14:50:35.974Z,4.35
2022-08-30T14:53:25.873Z,5.10
2022-08-30T14:56:19.691Z,5.35
2022-08-30T14:59:08.803Z,4.20
2022-08-30T15:01:57.286Z,4.40
2022-08-30T15:04:46.026Z,4.88
2022-08-30T15:07:38.877Z,4.38
2022-08-30T15:10:28.740Z,4.70
2022-08-30T15:13:17.554Z,4.68
2022-08-30T15:16:11.855Z,4.40
2022-08-30T15:19:01.861Z,4.45
2022-08-30T15:21:50.458Z,4.82
2022-08-30T15:24:40.925Z,4.43
2022-08-30T15:27:30.785Z,4.72
2022-08-30T15:30:19.642Z,4.22
2022-08-30T15:33:08.927Z,4.05
2022-08-30T15:36:01.557Z,4.60
2022-08-30T15:38:55.502Z,4.20
2022-08-30T15:41:45.185Z,4.28
2022-08-30T15:44:45.702Z,4.80
2022-08-30T15:47:34.216Z,4.32
2022-08-30T15:50:23.693Z,4.72
2022-08-30T15:53:12.308Z,5.07
2022-08-30T15:56:01.162Z,5.43
2022-08-30T15:58:53.081Z,5.00
2022-08-30T16:01:44.104Z,4.10
2022-08-30T16:04:32.812Z,4.53
2022-08-30T16:07:21.238Z,3.92
2022-08-30T16:10:10.736Z,4.05
2022-08-30T16:13:01.706Z,4.70
2022-08-30T16:15:51.389Z,4.55
2022-08-30T16:18:41.280Z,4.72
2022-08-30T16:21:31.646Z,4.53
2022-08-30T16:24:22.715Z,4.32
2022-08-30T16:27:11.933Z,4.75
2022-08-30T16:30:01.111Z,4.85
2022-08-30T16:32:50.454Z,4.38
2022-08-30T16:35:40.399Z,4.80
2022-08-30T16:38:29.413Z,5.03
2022-08-30T16:41:21.638Z,5.72
2022-08-30T16:44:11.518Z,6.38
2022-08-30T16:47:00.555Z,6.05
2022-08-30T16:49:49.186Z,5.70
2022-08-30T16:52:43.947Z,6.38
2022-08-30T16:55:36.009Z,5.97
2022-08-30T16:58:24.885Z,5.65
2022-08-30T17:01:15.831Z,5.45
2022-08-30T17:04:06.738Z,6.35
2022-08-30T17:06:55.285Z,5.32
2022-08-30T17:09:45.141Z,5.35
2022-08-30T17:12:34.000Z,5.80
2022-08-30T17:15:27.121Z,5.20
2022-08-30T17:18:19.346Z,5.75
2022-08-30T17:21:07.816Z,4.63
2022-08-30T17:23:58.465Z,5.35
2022-08-30T17:26:52.604Z,5.60
2022-08-30T17:29:41.838Z,6.85
2022-08-30T17:32:30.363Z,6.63
2022-08-30T17:35:21.588Z,6.32
2022-08-30T17:38:09.964Z,5.75
2022-08-30T17:41:03.029Z,6.22
2022-08-30T17:43:52.738Z,5.90
2022-08-30T17:46:42.141Z,5.55
2022-08-30T17:49:33.421Z,5.97
2022-08-30T17:52:22.265Z,5.95
2022-08-30T17:55:11.571Z,6.25
2022-08-30T17:58:00.937Z,6.07
2022-08-30T18:00:50.901Z,6.78
2022-08-30T18:03:39.433Z,7.15
2022-08-30T18:06:28.064Z,7.25
2022-08-30T18:09:18.740Z,7.13
2022-08-30T18:12:07.577Z,7.72
2022-08-30T18:14:56.062Z,9.02
2022-08-30T18:17:49.110Z,7.88
2022-08-30T18:20:38.142Z,7.85
2022-08-30T18:23:26.675Z,7.72
2022-08-30T18:26:15.722Z,7.72
2022-08-30T18:29:06.162Z,8.73
2022-08-30T18:31:54.668Z,7.80
2022-08-30T18:34:44.384Z,7.80
2022-08-30T18:37:33.189Z,8.10
2022-08-30T18:40:21.850Z,8.35
2022-08-30T18:43:10.348Z,8.32
2022-08-30T18:45:58.808Z,8.23
2022-08-30T18:48:47.961Z,8.40
2022-08-30T18:51:40.494Z,8.98
2022-08-30T18:54:29.523Z,9.52
2022-08-30T18:57:18.342Z,10.20
2022-08-30T19:00:09.550Z,9.40
2022-08-30T19:02:58.972Z,9.90
2022-08-30T19:05:47.727Z,9.32
2022-08-30T19:08:37.633Z,10.35
2022-08-30T19:11:26.393Z,9.95
2022-08-30T19:14:14.878Z,10.55
2022-08-30T19:17:06.696Z,9.85
2022-08-30T19:19:55.793Z,9.63
2022-08-30T19:23:08.523Z,9.80
2022-08-30T19:25:54.989Z,9.23
2022-08-30T19:28:43.914Z,8.55
2022-08-30T19:31:32.420Z,8.85
2022-08-30T19:34:21.413Z,8.80
2022-08-30T19:40:22.610Z,9.35
2022-08-30T19:43:12.614Z,9.45
2022-08-30T19:46:01.493Z,9.70
2022-08-30T19:48:49.846Z,10.60
2022-08-30T19:51:38.490Z,9.68
2022-08-30T19:54:27.216Z,9.85
2022-08-30T19:57:19.119Z,9.88
2022-08-30T20:00:12.096Z,9.98
2022-08-30T20:03:05.834Z,9.68
2022-08-30T20:05:55.173Z,9.80
2022-08-30T20:08:43.873Z,9.55
2022-08-30T20:11:35.134Z,9.90
2022-08-30T20:14:23.502Z,10.00
2022-08-30T20:17:13.304Z,10.40
2022-08-30T20:20:03.034Z,10.63
2022-08-30T20:22:54.261Z,11.40
2022-08-30T20:25:43.045Z,11.07
2022-08-30T20:28:31.586Z,11.10
2022-08-30T20:31:20.122Z,10.85
2022-08-30T20:34:09.945Z,11.65
2022-08-30T20:36:59.306Z,11.50
2022-08-30T20:39:47.685Z,11.73
2022-08-30T20:42:36.494Z,12.10
2022-08-30T20:45:24.830Z,11.70
2022-08-30T20:48:19.895Z,12.05
2022-08-30T20:51:11.396Z,12.50
2022-08-30T20:53:59.916Z,12.30
2022-08-30T20:56:48.273Z,11.98
2022-08-30T20:59:36.772Z,12.65
2022-08-30T21:02:25.430Z,12.13
2022-08-30T21:05:15.461Z,12.30
2022-08-30T21:08:09.999Z,13.13
2022-08-30T21:10:58.705Z,12.68
2022-08-30T21:13:48.497Z,13.43
2022-08-30T21:16:37.478Z,12.85
2022-08-30T21:19:26.425Z,12.75
2022-08-30T21:22:14.900Z,12.85
2022-08-30T21:25:04.847Z,12.35
2022-08-30T21:27:56.048Z,12.75
2022-08-30T21:30:44.696Z,12.18
2022-08-30T21:33:36.157Z,12.70
2022-08-30T21:36:46.024Z,12.50
2022-08-30T21:39:36.363Z,12.32
2022-08-30T21:42:26.081Z,12.27
2022-08-30T21:45:15.355Z,12.23
2022-08-30T21:48:04.329Z,12.18
2022-08-30T21:50:55.340Z,12.43
2022-08-30T21:53:44.059Z,13.70
2022-08-30T21:56:33.153Z,14.00
2022-08-30T21:59:23.409Z,14.13
2022-08-30T22:02:12.303Z,13.88
2022-08-30T22:05:00.784Z,13.55
2022-08-30T22:07:49.521Z,13.93
2022-08-30T22:10:38.318Z,13.73
2022-08-30T22:13:27.898Z,14.10
2022-08-30T22:16:19.667Z,14.43
2022-08-30T22:19:08.783Z,14.90
2022-08-30T22:22:00.687Z,14.98
2022-08-30T22:24:50.156Z,14.90
2022-08-30T22:27:38.899Z,15.65
2022-08-30T22:30:27.968Z,14.88
2022-08-30T22:33:19.777Z,15.98
2022-08-30T22:36:10.379Z,14.80
2022-08-30T22:39:00.196Z,14.80
2022-08-30T22:41:48.926Z,14.80
2022-08-30T22:44:37.718Z,14.98
2022-08-30T22:47:26.479Z,15.10
2022-08-30T22:50:16.901Z,15.73
2022-08-30T22:53:06.598Z,16.20
2022-08-30T22:55:55.373Z,16.08
2022-08-30T22:58:47.554Z,15.55
2022-08-30T23:01:39.552Z,15.90
2022-08-30T23:04:28.320Z,16.52
2022-08-30T23:07:18.493Z,15.93
2022-08-30T23:10:08.637Z,16.33
2022-08-30T23:12:58.838Z,16.95
2022-08-30T23:15:47.188Z,16.58
2022-08-30T23:18:38.445Z,16.63
2022-08-30T23:21:28.981Z,16.63
2022-08-30T23:24:36.467Z,17.85
2022-08-30T23:27:43.204Z,17.23
2022-08-30T23:30:49.532Z,17.48
2022-08-30T23:33:55.170Z,18.60
2022-08-30T23:37:00.973Z,18.43
2022-08-30T23:40:08.315Z,18.05
2022-08-30T23:43:14.032Z,18.30
2022-08-30T23:46:20.265Z,18.15
2022-08-30T23:49:25.983Z,19.30
2022-08-30T23:52:31.648Z,19.43
2022-08-30T23:55:39.130Z,19.37
2022-08-30T23:58:45.011Z,19.03
